createdAt,value
2023-02-20T00:00:04.954Z,0.00
2023-02-20T00:01:04.987Z,0.00
2023-02-20T00:02:04.947Z,0.00
2023-02-20T00:03:04.917Z,0.00
2023-02-20T00:04:04.904Z,0.00
2023-02-20T00:05:04.927Z,0.00
2023-02-20T00:06:04.878Z,0.00
2023-02-20T00:07:04.866Z,0.00
2023-02-20T00:08:04.850Z,0.00
2023-02-20T00:09:04.839Z,0.00
2023-02-20T00:10:04.824Z,0.00
2023-02-20T00:11:04.819Z,0.00
2023-02-20T00:12:04.796Z,0.00
2023-02-20T00:13:04.786Z,0.00
2023-02-20T00:14:04.772Z,0.00
2023-02-20T00:15:04.759Z,0.00
2023-02-20T00:16:04.841Z,0.00
2023-02-20T00:17:04.734Z,0.00
2023-02-20T00:18:04.725Z,0.00
2023-02-20T00:19:04.706Z,0.00
2023-02-20T00:20:04.692Z,0.00
2023-02-20T00:21:04.680Z,0.00
2023-02-20T00:22:04.666Z,0.00
2023-02-20T00:23:04.658Z,0.00
2023-02-20T00:24:04.641Z,0.00
2023-02-20T00:25:04.642Z,0.00
2023-02-20T00:26:04.612Z,0.00
2023-02-20T00:27:04.602Z,0.00
2023-02-20T00:28:04.587Z,0.00
2023-02-20T00:29:04.575Z,0.00
2023-02-20T00:30:04.578Z,0.00
2023-02-20T00:31:04.611Z,0.00
2023-02-20T00:32:04.585Z,0.00
2023-02-20T00:33:04.526Z,0.00
2023-02-20T00:34:04.511Z,0.00
2023-02-20T00:35:04.560Z,0.00
2023-02-20T00:36:04.488Z,0.00
2023-02-20T00:37:04.479Z,0.00
2023-02-20T00:38:04.461Z,0.00
2023-02-20T00:39:04.451Z,0.00
2023-02-20T00:40:04.435Z,0.00
2023-02-20T00:41:04.423Z,0.00
2023-02-20T00:42:04.410Z,0.00
2023-02-20T00:43:04.401Z,0.00
2023-02-20T00:44:04.383Z,0.00
2023-02-20T00:45:04.372Z,0.00
2023-02-20T00:46:04.380Z,0.00
2023-02-20T00:47:04.352Z,0.00
2023-02-20T00:48:04.342Z,0.00
2023-02-20T00:49:04.323Z,0.00
2023-02-20T00:50:04.306Z,0.00
2023-02-20T00:51:04.292Z,0.00
2023-02-20T00:52:04.286Z,0.00
2023-02-20T00:53:04.267Z,0.00
2023-02-20T00:54:04.256Z,0.00
2023-02-20T00:55:04.246Z,0.00
2023-02-20T00:56:04.234Z,0.00
2023-02-20T00:57:04.217Z,0.00
2023-02-20T00:58:04.203Z,0.00
2023-02-20T00:59:04.191Z,0.00
2023-02-20T01:00:04.191Z,0.00
2023-02-20T01:01:04.172Z,0.00
2023-02-20T01:02:04.153Z,0.00
2023-02-20T01:03:04.166Z,0.00
2023-02-20T01:04:04.124Z,0.00
2023-02-20T01:05:04.109Z,0.00
2023-02-20T01:06:04.104Z,0.00
2023-02-20T01:07:04.082Z,0.00
2023-02-20T01:08:04.073Z,0.00
2023-02-20T01:09:04.066Z,0.00
2023-02-20T01:10:04.044Z,0.00
2023-02-20T01:11:04.030Z,0.00
2023-02-20T01:12:04.020Z,0.00
2023-02-20T01:13:04.004Z,0.00
2023-02-20T01:14:03.994Z,0.00
2023-02-20T01:15:03.977Z,0.00
2023-02-20T01:16:04.021Z,0.00
2023-02-20T01:17:03.950Z,0.00
2023-02-20T01:18:03.940Z,0.00
2023-02-20T01:19:03.926Z,0.00
2023-02-20T01:20:03.914Z,0.00
2023-02-20T01:21:03.917Z,0.00
2023-02-20T01:22:03.887Z,0.00
2023-02-20T01:23:03.873Z,0.00
2023-02-20T01:24:03.864Z,0.00
2023-02-20T01:25:03.850Z,0.00
2023-02-20T01:26:03.835Z,0.00
2023-02-20T01:27:03.821Z,0.00
2023-02-20T01:28:03.809Z,0.00
2023-02-20T01:29:03.808Z,0.00
2023-02-20T01:30:03.782Z,0.00
2023-02-20T01:31:03.831Z,0.00
2023-02-20T01:32:03.872Z,0.00
2023-02-20T01:33:03.752Z,0.00
2023-02-20T01:34:03.730Z,0.00
2023-02-20T01:35:03.726Z,0.00
2023-02-20T01:36:03.705Z,0.00
2023-02-20T01:37:03.689Z,0.00
2023-02-20T01:38:03.696Z,0.00
2023-02-20T01:39:03.664Z,0.00
2023-02-20T01:40:03.659Z,0.00
2023-02-20T01:41:03.640Z,0.00
2023-02-20T01:42:03.628Z,0.00
2023-02-20T01:43:03.615Z,0.00
2023-02-20T01:44:03.604Z,0.00
2023-02-20T01:45:03.591Z,0.00
2023-02-20T01:46:03.578Z,0.00
2023-02-20T01:47:03.572Z,0.00
2023-02-20T01:48:03.553Z,0.00
2023-02-20T01:49:03.545Z,0.00
2023-02-20T01:50:03.527Z,0.00
2023-02-20T01:51:03.514Z,0.00
2023-02-20T01:52:03.502Z,0.00
2023-02-20T01:53:03.486Z,0.00
2023-02-20T01:54:03.475Z,0.00
2023-02-20T01:55:03.463Z,0.00
2023-02-20T01:56:03.450Z,0.00
2023-02-20T01:57:03.436Z,0.00
2023-02-20T01:58:03.426Z,0.00
2023-02-20T01:59:03.409Z,0.00
2023-02-20T02:00:03.405Z,0.00
2023-02-20T02:01:03.426Z,0.00
2023-02-20T02:02:03.464Z,0.00
2023-02-20T02:03:03.362Z,0.00
2023-02-20T02:04:03.346Z,0.00
2023-02-20T02:05:03.332Z,0.00
2023-02-20T02:06:03.332Z,0.00
2023-02-20T02:07:03.302Z,0.00
2023-02-20T02:08:03.299Z,0.00
2023-02-20T02:09:03.289Z,0.00
2023-02-20T02:10:03.269Z,0.00
2023-02-20T02:11:03.251Z,0.00
2023-02-20T02:12:03.245Z,0.00
2023-02-20T02:13:03.226Z,0.00
2023-02-20T02:14:03.214Z,0.00
2023-02-20T02:15:03.197Z,0.00
2023-02-20T02:16:03.236Z,0.00
2023-02-20T02:17:03.173Z,0.00
2023-02-20T02:18:03.162Z,0.00
2023-02-20T02:19:03.147Z,0.00
2023-02-20T02:20:03.133Z,0.00
2023-02-20T02:21:03.118Z,0.00
2023-02-20T02:22:03.109Z,0.00
2023-02-20T02:23:03.103Z,0.00
2023-02-20T02:24:03.078Z,0.00
2023-02-20T02:25:03.066Z,0.00
2023-02-20T02:26:03.052Z,0.00
2023-02-20T02:27:03.038Z,0.00
2023-02-20T02:28:03.025Z,0.00
2023-02-20T02:29:03.012Z,0.00
2023-02-20T02:30:03.057Z,0.00
2023-02-20T02:31:03.055Z,0.00
2023-02-20T02:32:03.016Z,0.00
2023-02-20T02:33:02.964Z,0.00
2023-02-20T02:34:02.951Z,0.00
2023-02-20T02:35:02.935Z,0.00
2023-02-20T02:36:02.923Z,0.00
2023-02-20T02:37:02.907Z,0.00
2023-02-20T02:38:02.894Z,0.00
2023-02-20T02:39:02.900Z,0.00
2023-02-20T02:40:02.875Z,0.00
2023-02-20T02:41:02.853Z,0.00
2023-02-20T02:42:02.844Z,0.00
2023-02-20T02:43:02.827Z,0.00
2023-02-20T02:44:02.817Z,0.00
2023-02-20T02:45:02.810Z,0.00
2023-02-20T02:46:02.898Z,0.00
2023-02-20T02:47:02.776Z,0.00
2023-02-20T02:49:02.754Z,0.00
2023-02-20T02:50:02.744Z,0.00
2023-02-20T02:51:02.727Z,0.00
2023-02-20T02:52:02.712Z,0.00
2023-02-20T02:53:02.698Z,0.00
2023-02-20T02:54:02.693Z,0.00
2023-02-20T02:55:02.699Z,0.00
2023-02-20T02:56:02.660Z,0.00
2023-02-20T02:57:02.649Z,0.00
2023-02-20T02:58:02.639Z,0.00
2023-02-20T02:59:02.620Z,0.00
2023-02-20T03:00:02.615Z,0.00
2023-02-20T03:01:02.641Z,0.00
2023-02-20T03:02:02.588Z,0.00
2023-02-20T03:03:02.573Z,0.00
2023-02-20T03:04:02.557Z,0.00
2023-02-20T03:05:02.551Z,0.00
2023-02-20T03:06:02.529Z,0.00
2023-02-20T03:07:02.527Z,0.00
2023-02-20T03:08:02.506Z,0.00
2023-02-20T03:09:02.490Z,0.00
2023-02-20T03:10:02.481Z,0.00
2023-02-20T03:11:02.491Z,0.00
2023-02-20T03:12:02.458Z,0.00
2023-02-20T03:13:02.438Z,0.00
2023-02-20T03:14:02.428Z,0.00
2023-02-20T03:15:02.410Z,0.00
2023-02-20T03:16:02.415Z,0.00
2023-02-20T03:17:02.385Z,0.00
2023-02-20T03:18:02.374Z,0.00
2023-02-20T03:19:02.365Z,0.00
2023-02-20T03:20:02.355Z,0.00
2023-02-20T03:21:02.342Z,0.00
2023-02-20T03:22:02.325Z,0.00
2023-02-20T03:23:02.314Z,0.00
2023-02-20T03:24:02.305Z,0.00
2023-02-20T03:25:02.286Z,0.00
2023-02-20T03:26:02.272Z,0.00
2023-02-20T03:27:02.283Z,0.00
2023-02-20T03:28:02.250Z,0.00
2023-02-20T03:29:02.238Z,0.00
2023-02-20T03:30:02.222Z,0.00
2023-02-20T03:31:02.279Z,0.00
2023-02-20T03:32:02.396Z,0.00
2023-02-20T03:33:02.188Z,0.00
2023-02-20T03:34:02.172Z,0.00
2023-02-20T03:35:02.160Z,0.00
2023-02-20T03:36:02.150Z,0.00
2023-02-20T03:37:02.131Z,0.00
2023-02-20T03:38:02.125Z,0.00
2023-02-20T03:39:02.145Z,0.00
2023-02-20T03:40:02.106Z,0.00
2023-02-20T03:41:02.081Z,0.00
2023-02-20T03:42:02.068Z,0.00
2023-02-20T03:43:02.085Z,0.00
2023-02-20T03:44:02.043Z,0.00
2023-02-20T03:45:02.044Z,0.00
2023-02-20T03:46:02.087Z,0.00
2023-02-20T03:47:02.004Z,0.00
2023-02-20T03:48:01.992Z,0.00
2023-02-20T03:49:01.992Z,0.00
2023-02-20T03:50:01.964Z,0.00
2023-02-20T03:51:01.954Z,0.00
2023-02-20T03:52:01.950Z,0.00
2023-02-20T03:53:01.932Z,0.00
2023-02-20T03:54:01.919Z,0.00
2023-02-20T03:55:01.898Z,0.00
2023-02-20T03:56:01.895Z,0.00
2023-02-20T03:57:01.873Z,0.00
2023-02-20T03:58:01.864Z,0.00
2023-02-20T03:59:01.870Z,0.00
2023-02-20T04:00:01.837Z,0.00
2023-02-20T04:01:01.827Z,0.00
2023-02-20T04:02:01.836Z,0.00
2023-02-20T04:03:01.797Z,0.00
2023-02-20T04:04:01.783Z,0.00
2023-02-20T04:05:01.775Z,0.00
2023-02-20T04:06:01.768Z,0.00
2023-02-20T04:07:01.744Z,0.00
2023-02-20T04:08:01.730Z,0.00
2023-02-20T04:09:01.720Z,0.00
2023-02-20T04:10:01.730Z,0.00
2023-02-20T04:11:01.697Z,0.00
2023-02-20T04:12:01.681Z,0.00
2023-02-20T04:13:01.664Z,0.00
2023-02-20T04:14:01.652Z,0.00
2023-02-20T04:15:01.666Z,0.00
2023-02-20T04:16:01.646Z,0.00
2023-02-20T04:17:01.638Z,0.00
2023-02-20T04:18:01.606Z,0.00
2023-02-20T04:19:01.586Z,0.00
2023-02-20T04:20:01.592Z,0.00
2023-02-20T04:21:01.561Z,0.00
2023-02-20T04:22:01.554Z,0.00
2023-02-20T04:23:01.541Z,0.00
2023-02-20T04:24:01.525Z,0.00
2023-02-20T04:25:01.516Z,0.00
2023-02-20T04:26:01.504Z,0.00
2023-02-20T04:27:01.483Z,0.00
2023-02-20T04:28:01.471Z,0.00
2023-02-20T04:29:01.463Z,0.00
2023-02-20T04:30:01.443Z,0.00
2023-02-20T04:31:01.494Z,0.00
2023-02-20T04:32:01.514Z,0.00
2023-02-20T04:33:01.419Z,0.00
2023-02-20T04:34:01.390Z,0.00
2023-02-20T04:35:01.375Z,0.00
2023-02-20T04:36:01.369Z,0.00
2023-02-20T04:37:01.348Z,0.00
2023-02-20T04:38:01.338Z,0.00
2023-02-20T04:39:01.330Z,0.00
2023-02-20T04:40:01.321Z,0.00
2023-02-20T04:41:01.297Z,0.00
2023-02-20T04:42:01.291Z,0.00
2023-02-20T04:43:01.283Z,0.00
2023-02-20T04:44:01.259Z,0.00
2023-02-20T04:45:01.245Z,0.00
2023-02-20T04:46:01.257Z,0.00
2023-02-20T04:47:01.244Z,0.00
2023-02-20T04:48:01.211Z,0.00
2023-02-20T04:49:01.196Z,0.00
2023-02-20T04:50:01.180Z,0.00
2023-02-20T04:51:02.966Z,0.00
2023-02-20T04:52:01.163Z,0.00
2023-02-20T04:53:01.153Z,0.00
2023-02-20T04:54:01.150Z,0.00
2023-02-20T04:55:01.130Z,0.00
2023-02-20T04:56:01.102Z,0.00
2023-02-20T04:57:01.090Z,0.00
2023-02-20T04:58:01.080Z,0.00
2023-02-20T04:59:01.063Z,0.00
2023-02-20T05:00:01.053Z,0.00
2023-02-20T05:01:01.046Z,0.00
2023-02-20T05:02:01.026Z,0.00
2023-02-20T05:03:01.035Z,0.00
2023-02-20T05:04:01.001Z,0.00
2023-02-20T05:05:00.989Z,0.00
2023-02-20T05:06:00.974Z,0.00
2023-02-20T05:07:00.974Z,0.00
2023-02-20T05:08:00.954Z,0.00
2023-02-20T05:09:00.949Z,0.00
2023-02-20T05:10:00.924Z,0.00
2023-02-20T05:11:00.918Z,0.00
2023-02-20T05:12:00.899Z,0.00
2023-02-20T05:13:00.899Z,0.00
2023-02-20T05:14:00.873Z,0.00
2023-02-20T05:15:00.865Z,0.00
2023-02-20T05:16:00.892Z,0.00
2023-02-20T05:17:00.835Z,0.00
2023-02-20T05:18:00.834Z,0.00
2023-02-20T05:19:00.849Z,0.00
2023-02-20T05:20:00.805Z,0.00
2023-02-20T05:21:00.790Z,0.00
2023-02-20T05:22:00.771Z,0.00
2023-02-20T05:23:00.772Z,0.00
2023-02-20T05:24:00.757Z,0.00
2023-02-20T05:25:00.746Z,0.00
2023-02-20T05:26:00.718Z,0.00
2023-02-20T05:27:00.708Z,0.00
2023-02-20T05:28:00.697Z,0.00
2023-02-20T05:29:00.680Z,0.00
2023-02-20T05:30:00.678Z,0.00
2023-02-20T05:31:00.750Z,0.00
2023-02-20T05:32:00.704Z,0.00
2023-02-20T05:33:00.632Z,0.00
2023-02-20T05:34:00.615Z,0.00
2023-02-20T05:35:00.659Z,0.00
2023-02-20T05:36:00.593Z,0.00
2023-02-20T05:37:00.583Z,0.00
2023-02-20T05:38:00.571Z,0.00
2023-02-20T05:39:00.552Z,0.00
2023-02-20T05:40:00.543Z,0.00
2023-02-20T05:41:00.532Z,0.00
2023-02-20T05:42:00.512Z,0.00
2023-02-20T05:43:00.500Z,0.00
2023-02-20T05:44:00.486Z,0.00
2023-02-20T05:45:00.476Z,0.00
2023-02-20T05:46:00.522Z,0.00
2023-02-20T05:47:00.452Z,0.00
2023-02-20T05:48:00.434Z,0.00
2023-02-20T05:49:00.422Z,0.00
2023-02-20T05:50:00.408Z,0.00
2023-02-20T05:51:00.420Z,0.00
2023-02-20T05:52:00.387Z,0.00
2023-02-20T05:53:00.380Z,0.00
2023-02-20T05:54:00.359Z,0.00
2023-02-20T05:55:00.345Z,0.00
2023-02-20T05:56:00.330Z,0.00
2023-02-20T05:57:02.114Z,4.00
2023-02-20T05:58:00.309Z,4.00
2023-02-20T05:59:00.306Z,0.00
2023-02-20T06:00:00.283Z,4.00
2023-02-20T06:01:00.266Z,4.00
2023-02-20T06:02:00.253Z,0.00
2023-02-20T06:03:00.242Z,4.00
2023-02-20T06:04:00.270Z,4.00
2023-02-20T06:05:00.259Z,8.00
2023-02-20T06:06:00.201Z,8.00
2023-02-20T06:07:00.218Z,8.00
2023-02-20T06:08:00.183Z,8.00
2023-02-20T06:09:00.164Z,12.00
2023-02-20T06:10:00.164Z,16.00
2023-02-20T06:11:00.141Z,20.00
2023-02-20T06:12:00.124Z,20.00
2023-02-20T06:13:00.114Z,24.00
2023-02-20T06:14:00.119Z,32.00
2023-02-20T06:15:00.109Z,36.00
2023-02-20T06:16:00.209Z,48.00
2023-02-20T06:17:00.086Z,56.00
2023-02-20T06:18:00.070Z,68.00
2023-02-20T06:19:00.037Z,76.00
2023-02-20T06:20:00.040Z,88.00
2023-02-20T06:21:00.009Z,96.00
2023-02-20T06:21:59.996Z,108.00
2023-02-20T06:23:00.015Z,124.00
2023-02-20T06:23:59.971Z,144.00
2023-02-20T06:24:59.958Z,160.00
2023-02-20T06:25:59.947Z,180.00
2023-02-20T06:26:59.932Z,196.00
2023-02-20T06:27:59.920Z,220.00
2023-02-20T06:28:59.908Z,244.00
2023-02-20T06:29:59.894Z,272.00
2023-02-20T06:31:01.856Z,304.00
2023-02-20T06:31:59.996Z,332.00
2023-02-20T06:32:59.858Z,372.00
2023-02-20T06:33:59.845Z,408.00
2023-02-20T06:34:59.850Z,452.00
2023-02-20T06:35:59.821Z,504.00
2023-02-20T06:36:59.809Z,556.00
2023-02-20T06:37:59.800Z,616.00
2023-02-20T06:38:59.813Z,680.00
2023-02-20T06:39:59.774Z,752.00
2023-02-20T06:40:59.759Z,812.00
2023-02-20T06:41:59.747Z,876.00
2023-02-20T06:42:59.733Z,936.00
2023-02-20T06:43:59.719Z,1004.00
2023-02-20T06:44:59.706Z,1072.00
2023-02-20T06:45:59.692Z,1124.00
2023-02-20T06:46:59.804Z,1164.00
2023-02-20T06:47:59.666Z,1212.00
2023-02-20T06:49:59.640Z,1348.00
2023-02-20T06:50:59.630Z,1412.00
2023-02-20T06:51:59.616Z,1480.00
2023-02-20T06:52:59.607Z,1556.00
2023-02-20T06:53:59.595Z,1644.00
2023-02-20T06:54:59.601Z,1736.00
2023-02-20T06:55:59.565Z,1824.00
2023-02-20T06:56:59.554Z,1908.00
2023-02-20T06:57:59.539Z,2008.00
2023-02-20T06:58:59.532Z,2116.00
2023-02-20T06:59:59.513Z,2228.00
2023-02-20T07:00:59.591Z,2356.00
2023-02-20T07:01:59.510Z,2508.00
2023-02-20T07:02:59.475Z,2664.00
2023-02-20T07:03:59.475Z,2808.00
2023-02-20T07:04:59.448Z,2980.00
2023-02-20T07:05:59.435Z,3160.00
2023-02-20T07:06:59.424Z,3404.00
2023-02-20T07:07:59.411Z,3620.00
2023-02-20T07:08:59.402Z,3680.00
2023-02-20T07:09:59.383Z,3720.00
2023-02-20T07:10:59.407Z,3852.00
2023-02-20T07:11:59.358Z,3996.00
2023-02-20T07:12:59.345Z,4116.00
2023-02-20T07:13:59.331Z,4316.00
2023-02-20T07:14:59.319Z,4608.00
2023-02-20T07:15:59.349Z,5024.00
2023-02-20T07:16:59.293Z,5516.00
2023-02-20T07:17:59.280Z,5804.00
2023-02-20T07:18:59.268Z,5780.00
2023-02-20T07:19:59.410Z,5808.00
2023-02-20T07:20:59.551Z,5896.00
2023-02-20T07:21:59.227Z,6120.00
2023-02-20T07:22:59.214Z,6624.00
2023-02-20T07:23:59.204Z,7904.00
2023-02-20T07:24:59.187Z,9332.00
2023-02-20T07:25:59.175Z,11460.00
2023-02-20T07:26:59.188Z,13216.00
2023-02-20T07:27:59.148Z,15840.00
2023-02-20T07:28:59.135Z,16608.00
2023-02-20T07:29:59.127Z,16832.00
2023-02-20T07:30:59.118Z,16736.00
2023-02-20T07:31:59.257Z,17216.00
2023-02-20T07:32:59.087Z,19040.00
2023-02-20T07:33:59.071Z,19392.00
2023-02-20T07:35:05.444Z,13584.00
2023-02-20T07:35:59.043Z,13460.00
2023-02-20T07:36:59.030Z,9688.00
2023-02-20T07:37:59.015Z,8680.00
2023-02-20T07:38:59.003Z,8156.00
2023-02-20T07:39:58.988Z,7804.00
2023-02-20T07:40:58.978Z,8224.00
2023-02-20T07:41:58.960Z,7936.00
2023-02-20T07:42:58.975Z,7776.00
2023-02-20T07:43:58.936Z,7816.00
2023-02-20T07:44:58.926Z,7964.00
2023-02-20T07:45:58.948Z,8556.00
2023-02-20T07:46:58.902Z,9304.00
2023-02-20T07:47:58.881Z,10332.00
2023-02-20T07:48:58.867Z,11084.00
2023-02-20T07:49:58.865Z,11728.00
2023-02-20T07:50:58.853Z,16032.00
2023-02-20T07:51:58.830Z,23200.00
2023-02-20T07:52:58.818Z,16768.00
2023-02-20T07:53:58.800Z,13188.00
2023-02-20T07:54:58.788Z,11260.00
2023-02-20T07:55:58.782Z,9832.00
2023-02-20T07:56:58.766Z,9844.00
2023-02-20T07:57:58.744Z,10896.00
2023-02-20T07:59:00.749Z,13208.00
2023-02-20T07:59:58.736Z,12540.00
2023-02-20T08:00:58.707Z,12716.00
2023-02-20T08:01:58.759Z,12516.00
2023-02-20T08:02:58.679Z,13452.00
2023-02-20T08:03:58.672Z,12976.00
2023-02-20T08:04:58.685Z,13972.00
2023-02-20T08:05:58.637Z,13548.00
2023-02-20T08:06:58.625Z,13552.00
2023-02-20T08:07:58.610Z,14712.00
2023-02-20T08:08:58.599Z,15144.00
2023-02-20T08:09:58.584Z,16480.00
2023-02-20T08:11:08.274Z,21920.00
2023-02-20T08:11:58.559Z,23712.00
2023-02-20T08:12:58.546Z,22944.00
2023-02-20T08:13:58.533Z,15616.00
2023-02-20T08:14:58.550Z,15348.00
2023-02-20T08:15:58.564Z,16768.00
2023-02-20T08:16:58.494Z,16544.00
2023-02-20T08:17:58.480Z,19200.00
2023-02-20T08:18:58.493Z,31520.00
2023-02-20T08:19:58.460Z,29824.00
2023-02-20T08:20:58.439Z,43680.00
2023-02-20T08:21:58.429Z,46048.00
2023-02-20T08:22:58.420Z,33056.00
2023-02-20T08:23:58.401Z,27392.00
2023-02-20T08:24:58.388Z,21632.00
2023-02-20T08:25:58.373Z,18880.00
2023-02-20T08:26:59.306Z,27424.00
2023-02-20T08:27:58.352Z,29376.00
2023-02-20T08:28:58.336Z,26912.00
2023-02-20T08:29:58.318Z,19104.00
2023-02-20T08:30:58.341Z,29024.00
2023-02-20T08:31:58.382Z,21536.00
2023-02-20T08:32:58.317Z,24096.00
2023-02-20T08:33:58.282Z,23488.00
2023-02-20T08:34:58.254Z,25952.00
2023-02-20T08:35:58.406Z,43904.00
2023-02-20T08:36:58.227Z,41056.00
2023-02-20T08:37:58.218Z,37088.00
2023-02-20T08:38:58.205Z,32288.00
2023-02-20T08:39:58.190Z,53376.00
2023-02-20T08:40:58.196Z,52352.00
2023-02-20T08:41:58.165Z,65984.00
2023-02-20T08:42:58.147Z,61824.00
2023-02-20T08:43:58.141Z,55104.00
2023-02-20T08:44:58.126Z,35072.00
2023-02-20T08:45:58.176Z,18784.00
2023-02-20T08:46:58.119Z,33600.00
2023-02-20T08:47:58.090Z,34272.00
2023-02-20T08:48:58.069Z,36672.00
2023-02-20T08:49:58.059Z,43200.00
2023-02-20T08:50:58.042Z,65632.00
2023-02-20T08:51:58.027Z,79872.00
2023-02-20T08:52:58.015Z,91968.00
2023-02-20T08:53:58.008Z,78368.00
2023-02-20T08:54:57.993Z,78208.00
2023-02-20T08:55:57.975Z,69440.00
2023-02-20T08:56:57.965Z,59360.00
2023-02-20T08:57:57.950Z,43392.00
2023-02-20T08:58:57.938Z,61568.00
2023-02-20T08:59:57.922Z,50656.00
2023-02-20T09:00:57.971Z,26080.00
2023-02-20T09:01:57.895Z,20480.00
2023-02-20T09:02:58.064Z,21184.00
2023-02-20T09:03:57.869Z,18592.00
2023-02-20T09:04:57.855Z,18592.00
2023-02-20T09:05:57.848Z,21760.00
2023-02-20T09:06:57.831Z,22432.00
2023-02-20T09:07:57.818Z,27200.00
2023-02-20T09:08:57.807Z,24800.00
2023-02-20T09:09:57.810Z,27872.00
2023-02-20T09:10:57.792Z,35840.00
2023-02-20T09:11:57.765Z,48576.00
2023-02-20T09:12:57.769Z,51552.00
2023-02-20T09:13:57.763Z,58880.00
2023-02-20T09:14:57.733Z,47136.00
2023-02-20T09:15:57.720Z,41984.00
2023-02-20T09:16:57.770Z,45312.00
2023-02-20T09:17:57.702Z,63904.00
2023-02-20T09:18:57.782Z,65856.00
2023-02-20T09:19:57.725Z,65792.00
2023-02-20T09:20:57.657Z,61440.00
2023-02-20T09:21:57.641Z,63584.00
2023-02-20T09:22:57.626Z,63616.00
2023-02-20T09:23:57.616Z,71328.00
2023-02-20T09:24:57.603Z,71008.00
2023-02-20T09:25:57.586Z,78496.00
2023-02-20T09:26:57.742Z,72736.00
2023-02-20T09:27:57.569Z,69824.00
2023-02-20T09:28:57.558Z,73536.00
2023-02-20T09:29:57.552Z,81728.00
2023-02-20T09:30:57.559Z,83680.00
2023-02-20T09:31:57.595Z,78016.00
2023-02-20T09:32:57.496Z,69696.00
2023-02-20T09:33:57.486Z,72576.00
2023-02-20T09:34:57.496Z,81280.00
2023-02-20T09:35:57.474Z,81408.00
2023-02-20T09:36:57.447Z,80288.00
2023-02-20T09:37:57.446Z,79744.00
2023-02-20T09:38:57.429Z,77600.00
2023-02-20T09:39:57.429Z,71744.00
2023-02-20T09:40:57.411Z,74624.00
2023-02-20T09:41:57.389Z,76352.00
2023-02-20T09:42:57.387Z,78816.00
2023-02-20T09:43:57.365Z,80160.00
2023-02-20T09:44:57.352Z,75776.00
2023-02-20T09:45:57.406Z,77536.00
2023-02-20T09:46:57.319Z,82144.00
2023-02-20T09:47:57.309Z,83840.00
2023-02-20T09:48:57.291Z,82816.00
2023-02-20T09:49:57.284Z,79648.00
2023-02-20T09:50:57.292Z,79264.00
2023-02-20T09:51:57.268Z,78304.00
2023-02-20T09:52:57.246Z,72480.00
2023-02-20T09:53:57.228Z,82112.00
2023-02-20T09:54:57.223Z,83488.00
2023-02-20T09:55:57.201Z,84896.00
2023-02-20T09:56:57.197Z,91264.00
2023-02-20T09:57:57.182Z,98208.00
2023-02-20T09:58:57.171Z,96736.00
2023-02-20T09:59:57.157Z,89664.00
2023-02-20T10:00:57.138Z,85472.00
2023-02-20T10:01:57.183Z,89760.00
2023-02-20T10:02:57.268Z,91840.00
2023-02-20T10:03:57.122Z,87552.00
2023-02-20T10:05:01.503Z,85312.00
2023-02-20T10:05:57.088Z,84832.00
2023-02-20T10:06:57.086Z,88672.00
2023-02-20T10:07:57.053Z,87232.00
2023-02-20T10:08:57.039Z,85632.00
2023-02-20T10:09:57.031Z,84288.00
2023-02-20T10:10:57.011Z,85760.00
2023-02-20T10:11:57.003Z,88160.00
2023-02-20T10:12:56.991Z,90208.00
2023-02-20T10:13:56.979Z,85920.00
2023-02-20T10:14:56.962Z,82112.00
2023-02-20T10:15:56.996Z,83488.00
2023-02-20T10:16:56.939Z,69184.00
2023-02-20T10:17:56.928Z,71680.00
2023-02-20T10:18:56.914Z,77792.00
2023-02-20T10:19:56.900Z,84672.00
2023-02-20T10:20:56.890Z,91744.00
2023-02-20T10:21:56.883Z,95040.00
2023-02-20T10:22:56.914Z,96864.00
2023-02-20T10:24:05.310Z,94976.00
2023-02-20T10:24:56.849Z,95680.00
2023-02-20T10:25:56.828Z,96416.00
2023-02-20T10:26:56.815Z,95808.00
2023-02-20T10:27:56.808Z,92032.00
2023-02-20T10:28:56.838Z,86976.00
2023-02-20T10:29:57.876Z,85440.00
2023-02-20T10:30:56.827Z,86368.00
2023-02-20T10:31:56.879Z,90912.00
2023-02-20T10:32:56.745Z,94336.00
2023-02-20T10:33:56.729Z,92864.00
2023-02-20T10:34:56.718Z,89760.00
2023-02-20T10:35:56.712Z,85536.00
2023-02-20T10:36:56.692Z,82560.00
2023-02-20T10:37:56.686Z,75392.00
2023-02-20T10:38:56.710Z,71936.00
2023-02-20T10:39:56.658Z,72032.00
2023-02-20T10:40:56.647Z,75840.00
2023-02-20T10:41:56.636Z,86848.00
2023-02-20T10:42:56.618Z,90848.00
2023-02-20T10:43:56.606Z,86080.00
2023-02-20T10:44:56.594Z,80096.00
2023-02-20T10:45:56.772Z,80544.00
2023-02-20T10:46:56.672Z,83168.00
2023-02-20T10:47:56.558Z,84160.00
2023-02-20T10:48:56.548Z,85344.00
2023-02-20T10:50:56.522Z,88832.00
2023-02-20T10:51:56.509Z,87648.00
2023-02-20T10:52:56.494Z,88512.00
2023-02-20T10:53:56.482Z,88768.00
2023-02-20T10:54:56.491Z,77568.00
2023-02-20T10:55:56.456Z,76928.00
2023-02-20T10:56:56.440Z,81632.00
2023-02-20T10:57:56.439Z,81504.00
2023-02-20T10:58:56.426Z,85920.00
2023-02-20T10:59:56.407Z,81056.00
2023-02-20T11:00:56.402Z,79552.00
2023-02-20T11:01:56.540Z,81824.00
2023-02-20T11:02:56.367Z,86944.00
2023-02-20T11:03:56.354Z,92256.00
2023-02-20T11:04:56.355Z,94144.00
2023-02-20T11:05:56.329Z,93440.00
2023-02-20T11:06:56.313Z,92064.00
2023-02-20T11:07:56.306Z,90752.00
2023-02-20T11:08:56.288Z,89440.00
2023-02-20T11:09:56.280Z,87360.00
2023-02-20T11:10:56.294Z,87136.00
2023-02-20T11:11:56.258Z,88256.00
2023-02-20T11:12:56.254Z,89664.00
2023-02-20T11:13:56.230Z,91520.00
2023-02-20T11:14:56.218Z,90656.00
2023-02-20T11:15:56.261Z,89472.00
2023-02-20T11:16:56.193Z,88128.00
2023-02-20T11:17:56.187Z,87552.00
2023-02-20T11:18:56.168Z,86944.00
2023-02-20T11:19:56.270Z,87712.00
2023-02-20T11:20:56.143Z,87488.00
2023-02-20T11:21:56.133Z,91072.00
2023-02-20T11:22:56.119Z,92896.00
2023-02-20T11:23:57.006Z,94304.00
2023-02-20T11:24:56.095Z,92384.00
2023-02-20T11:25:56.098Z,88256.00
2023-02-20T11:26:56.094Z,85440.00
2023-02-20T11:27:56.059Z,85696.00
2023-02-20T11:28:56.057Z,89216.00
2023-02-20T11:29:56.035Z,91168.00
2023-02-20T11:30:56.042Z,90208.00
2023-02-20T11:31:56.168Z,87872.00
2023-02-20T11:32:56.001Z,87232.00
2023-02-20T11:33:56.071Z,91168.00
2023-02-20T11:34:55.977Z,92928.00
2023-02-20T11:35:55.970Z,91968.00
2023-02-20T11:36:55.953Z,91424.00
2023-02-20T11:37:55.993Z,90720.00
2023-02-20T11:38:55.930Z,89888.00
2023-02-20T11:39:55.921Z,90880.00
2023-02-20T11:40:55.904Z,89408.00
2023-02-20T11:41:55.895Z,86368.00
2023-02-20T11:42:55.904Z,86368.00
2023-02-20T11:44:01.345Z,88128.00
2023-02-20T11:44:55.858Z,90080.00
2023-02-20T11:45:55.871Z,90848.00
2023-02-20T11:46:55.834Z,88288.00
2023-02-20T11:47:55.823Z,85696.00
2023-02-20T11:48:55.809Z,84032.00
2023-02-20T11:49:55.799Z,84064.00
2023-02-20T11:50:55.783Z,87712.00
2023-02-20T11:51:55.776Z,93312.00
2023-02-20T11:52:55.760Z,95904.00
2023-02-20T11:53:55.748Z,94624.00
2023-02-20T11:54:55.735Z,90752.00
2023-02-20T11:56:11.843Z,88000.00
2023-02-20T11:56:55.710Z,87712.00
2023-02-20T11:57:55.709Z,89568.00
2023-02-20T11:58:55.708Z,90944.00
2023-02-20T11:59:55.672Z,91904.00
2023-02-20T12:00:55.654Z,92640.00
2023-02-20T12:02:00.929Z,89184.00
2023-02-20T12:02:55.674Z,86048.00
2023-02-20T12:03:55.701Z,84704.00
2023-02-20T12:04:55.627Z,87008.00
2023-02-20T12:05:55.658Z,87104.00
2023-02-20T12:06:55.584Z,84800.00
2023-02-20T12:07:55.572Z,80864.00
2023-02-20T12:08:55.580Z,79008.00
2023-02-20T12:09:55.549Z,79904.00
2023-02-20T12:10:55.532Z,82880.00
2023-02-20T12:11:55.521Z,87136.00
2023-02-20T12:12:55.510Z,91488.00
2023-02-20T12:13:55.500Z,92000.00
2023-02-20T12:14:55.518Z,87872.00
2023-02-20T12:15:55.492Z,87200.00
2023-02-20T12:16:55.460Z,89600.00
2023-02-20T12:17:55.452Z,90496.00
2023-02-20T12:18:55.435Z,90080.00
2023-02-20T12:19:55.426Z,86752.00
2023-02-20T12:20:55.410Z,82240.00
2023-02-20T12:21:55.399Z,80928.00
2023-02-20T12:22:55.385Z,82528.00
2023-02-20T12:23:55.375Z,86304.00
2023-02-20T12:24:55.361Z,86880.00
2023-02-20T12:25:55.351Z,83232.00
2023-02-20T12:26:55.336Z,80832.00
2023-02-20T12:27:55.325Z,81792.00
2023-02-20T12:28:55.312Z,82304.00
2023-02-20T12:29:55.303Z,81248.00
2023-02-20T12:30:55.310Z,77472.00
2023-02-20T12:31:55.425Z,76384.00
2023-02-20T12:32:55.263Z,75872.00
2023-02-20T12:33:55.258Z,70624.00